Time;durP1;ratioP1;P1;durP2;ratioP2;P2;SDS_P1;SDS_P2;PMS_P1;PMS_P2;Temp;Humidity;BMP_temperature;BMP_pressure;BME280_temperature;BME280_humidity;BME280_pressure;Samples;Min_cycle;Max_cycle;Signal;HPM_P1;HPM_P2
2022/06/05 00:00:16;;;;;;;5.30;3.10;;;;;;;23.00;67.84;99940.63;4361478;32;33678;-68
2022/06/05 00:02:50;;;;;;;4.07;2.85;;;;;;;22.83;68.32;99938.69;4361557;32;34768;-68
2022/06/05 00:05:44;;;;;;;4.82;3.20;;;;;;;22.69;68.88;99938.88;4362281;32;34208;-68
2022/06/05 00:08:40;;;;;;;3.90;3.00;;;;;;;22.67;69.09;99941.16;4355639;32;34897;-68
2022/06/05 00:11:10;;;;;;;5.47;3.35;;;;;;;22.76;68.84;99936.41;4361549;32;33731;-68
2022/06/05 00:13:45;;;;;;;5.18;3.60;;;;;;;22.71;69.07;99939.34;4361941;32;34192;-69
2022/06/05 00:16:14;;;;;;;3.95;3.30;;;;;;;22.47;70.17;99939.84;4361768;32;33918;-69
2022/06/05 00:18:43;;;;;;;5.00;3.50;;;;;;;22.25;71.02;99936.06;4361007;32;34230;-68
2022/06/05 00:21:10;;;;;;;5.40;3.40;;;;;;;22.63;70.09;99935.44;4361213;32;34024;-68
2022/06/05 00:23:38;;;;;;;6.37;3.58;;;;;;;22.71;69.91;99934.63;4361968;32;34430;-69
2022/06/05 00:26:28;;;;;;;5.43;4.22;;;;;;;22.34;71.37;99935.28;4361751;32;34159;-70
2022/06/05 00:29:15;;;;;;;5.97;3.95;;;;;;;22.58;70.90;99926.50;4361690;32;34325;-69
2022/06/05 00:32:14;;;;;;;4.95;3.65;;;;;;;22.29;72.08;99925.19;4360885;32;33417;-69
2022/06/05 00:34:42;;;;;;;5.40;4.03;;;;;;;22.24;72.36;99926.13;4361550;32;33775;-69
2022/06/05 00:37:23;;;;;;;5.47;4.18;;;;;;;22.42;71.48;99923.41;4361603;32;34186;-68
2022/06/05 00:40:11;;;;;;;7.70;3.97;;;;;;;22.51;70.78;99919.50;4361259;32;33992;-69
2022/06/05 00:42:39;;;;;;;7.57;4.70;;;;;;;22.26;71.48;99915.56;4348069;32;33799;-68
2022/06/05 00:45:08;;;;;;;6.97;4.35;;;;;;;22.49;70.34;99913.50;4361617;32;34008;-69
2022/06/05 00:47:36;;;;;;;5.97;4.50;;;;;;;22.50;70.17;99909.59;4360802;32;33897;-68
2022/06/05 00:50:04;;;;;;;6.10;4.55;;;;;;;22.44;70.28;99910.91;4347693;32;34961;-69
2022/06/05 00:52:34;;;;;;;6.15;4.53;;;;;;;22.67;69.52;99913.50;4361259;32;33936;-68
2022/06/05 00:55:03;;;;;;;7.80;4.47;;;;;;;22.42;69.83;99902.13;4347743;32;34043;-68
2022/06/05 00:57:32;;;;;;;5.50;4.18;;;;;;;22.34;70.37;99911.22;4348070;32;34189;-66
2022/06/05 01:00:12;;;;;;;6.90;4.95;;;;;;;22.58;69.19;99902.44;4347448;32;34176;-69
2022/06/05 01:02:42;;;;;;;6.15;4.10;;;;;;;22.28;70.52;99899.47;4361097;32;33914;-69
2022/06/05 01:05:11;;;;;;;7.75;4.62;;;;;;;22.28;70.47;99907.78;4348083;32;33613;-68
2022/06/05 01:07:39;;;;;;;6.87;4.20;;;;;;;22.53;69.62;99897.06;4361284;32;34313;-72
2022/06/05 01:10:08;;;;;;;5.65;4.03;;;;;;;22.73;68.68;99898.38;4360448;32;34629;-71
2022/06/05 01:12:58;;;;;;;5.47;4.25;;;;;;;22.16;70.67;99892.94;4347482;32;34456;-69
2022/06/05 01:15:37;;;;;;;6.07;4.47;;;;;;;22.42;69.69;99887.44;4360962;32;34061;-69
2022/06/05 01:18:15;;;;;;;6.40;4.53;;;;;;;22.48;69.24;99888.94;4360964;32;34977;-69
2022/06/05 01:21:00;;;;;;;5.95;4.28;;;;;;;22.73;68.26;99895.59;4360404;32;34392;-69
2022/06/05 01:23:53;;;;;;;5.32;4.03;;;;;;;22.64;68.53;99890.06;4347523;32;34133;-68
2022/06/05 01:26:30;;;;;;;6.20;4.00;;;;;;;22.63;68.28;99896.72;4347610;32;34797;-71
2022/06/05 01:29:05;;;;;;;6.10;4.50;;;;;;;22.40;69.10;99887.00;4347773;32;34187;-68
2022/06/05 01:31:58;;;;;;;6.90;4.97;;;;;;;21.88;71.42;99891.28;4348435;32;34341;-69
2022/06/05 01:34:40;;;;;;;8.90;4.57;;;;;;;22.26;69.71;99892.66;4349517;32;34354;-68
2022/06/05 01:37:20;;;;;;;6.70;4.37;;;;;;;22.47;68.68;99890.88;4349929;32;33773;-68
2022/06/05 01:39:55;;;;;;;5.87;4.72;;;;;;;22.52;68.68;99893.47;4362595;32;34189;-71
2022/06/05 01:42:30;;;;;;;6.05;4.80;;;;;;;22.07;70.59;99901.22;4362723;32;33570;-69
2022/06/05 01:45:02;;;;;;;6.40;4.30;;;;;;;22.25;69.80;99902.09;4349468;32;34386;-68
2022/06/05 01:47:33;;;;;;;5.47;4.43;;;;;;;22.16;70.17;99903.97;4349591;32;34012;-68
2022/06/05 01:50:14;;;;;;;6.15;4.97;;;;;;;21.92;71.06;99903.31;4349010;32;33742;-68
2022/06/05 01:52:52;;;;;;;7.32;5.10;;;;;;;21.91;71.52;99893.38;4349438;32;34928;-69
2022/06/05 01:55:24;;;;;;;6.35;4.53;;;;;;;22.25;69.93;99891.84;4349792;32;33822;-70
2022/06/05 01:57:54;;;;;;;7.97;4.90;;;;;;;22.09;70.57;99890.66;4349530;32;33984;-67
2022/06/05 02:00:22;;;;;;;5.80;4.43;;;;;;;22.23;69.90;99893.31;4348486;32;33963;-69
2022/06/05 02:03:09;;;;;;;7.10;6.12;;;;;;;22.01;70.75;99891.44;4349462;32;34072;-69
2022/06/05 02:05:37;;;;;;;6.60;5.25;;;;;;;21.63;72.62;99892.00;4363030;32;33452;-68
2022/06/05 02:08:21;;;;;;;6.53;4.50;;;;;;;21.83;71.63;99896.13;4349342;32;32313;-68
2022/06/05 02:10:54;;;;;;;6.32;4.78;;;;;;;22.31;69.74;99896.09;4348955;32;34244;-69
2022/06/05 02:13:22;;;;;;;6.28;4.75;;;;;;;22.42;68.73;99901.28;4362767;32;34197;-69
2022/06/05 02:15:49;;;;;;;6.70;4.97;;;;;;;22.59;67.84;99901.31;4362770;32;33854;-69
2022/06/05 02:18:17;;;;;;;6.40;4.40;;;;;;;22.80;67.14;99909.75;4349120;32;33674;-68
2022/06/05 02:20:45;;;;;;;5.80;4.50;;;;;;;22.53;67.96;99906.19;4362166;32;34247;-69
2022/06/05 02:23:15;;;;;;;6.40;4.40;;;;;;;22.08;69.69;99903.66;4362831;32;35023;-70
2022/06/05 02:25:43;;;;;;;9.10;4.82;;;;;;;21.85;70.65;99897.41;4349191;32;34394;-69
2022/06/05 02:28:12;;;;;;;5.40;4.12;;;;;;;22.39;68.32;99907.47;4362771;32;34559;-69
2022/06/05 02:30:53;;;;;;;6.90;5.07;;;;;;;21.54;71.47;99894.72;4348280;32;34191;-69
2022/06/05 02:33:37;;;;;;;5.60;4.40;;;;;;;21.69;71.00;99893.47;4362621;32;34274;-70
2022/06/05 02:36:05;;;;;;;5.57;4.00;;;;;;;21.49;72.18;99892.13;4362452;32;33747;-68
2022/06/05 02:38:56;;;;;;;6.43;4.70;;;;;;;21.12;74.57;99883.12;4362541;32;34777;-69
2022/06/05 02:41:48;;;;;;;5.43;4.15;;;;;;;21.68;70.99;99881.63;4362234;32;34913;-68
2022/06/05 02:44:34;;;;;;;6.47;4.12;;;;;;;21.96;69.26;99881.34;4348917;32;34342;-70
2022/06/05 02:47:39;;;;;;;7.20;4.65;;;;;;;21.71;70.29;99888.47;4362544;32;33658;-68
2022/06/05 02:50:26;;;;;;;5.85;4.30;;;;;;;21.70;70.27;99890.38;4361973;32;33992;-68
2022/06/05 02:53:01;;;;;;;8.20;4.32;;;;;;;21.72;69.80;99898.34;4348794;32;34209;-68
2022/06/05 02:55:29;;;;;;;5.57;4.57;;;;;;;21.76;69.33;99896.59;4349138;32;33986;-68
2022/06/05 02:57:57;;;;;;;5.78;4.50;;;;;;;21.83;68.91;99891.41;4348949;32;33655;-69
2022/06/05 03:00:27;;;;;;;5.22;4.55;;;;;;;21.47;70.19;99891.63;4347042;33;32553;-68
2022/06/05 03:05:41;;;;;;;8.38;4.72;;;;;;;21.84;68.44;99892.22;4355514;32;35115;-71
2022/06/05 03:08:11;;;;;;;6.00;4.28;;;;;;;21.67;69.22;99888.28;4349313;32;34481;-76
2022/06/05 03:10:39;;;;;;;5.75;4.45;;;;;;;21.83;69.02;99893.34;4335885;32;34045;-70
2022/06/05 03:13:07;;;;;;;5.60;4.15;;;;;;;21.84;69.13;99904.09;4348758;32;34963;-66
2022/06/05 03:15:35;;;;;;;5.93;4.80;;;;;;;21.95;68.67;99901.84;4362561;32;34196;-75
2022/06/05 03:18:03;;;;;;;6.60;4.93;;;;;;;21.70;69.67;99904.19;4361812;32;34589;-76
2022/06/05 03:20:31;;;;;;;5.87;4.47;;;;;;;21.76;69.43;99899.34;4348473;32;33760;-77
2022/06/05 03:22:58;;;;;;;6.22;4.35;;;;;;;21.85;69.15;99907.66;4362158;32;34230;-67
2022/06/05 03:25:26;;;;;;;6.57;4.40;;;;;;;21.64;70.44;99908.25;4362200;32;34919;-67
2022/06/05 03:27:54;;;;;;;6.93;4.43;;;;;;;21.68;71.22;99900.13;4362008;32;34662;-76
2022/06/05 03:30:22;;;;;;;8.30;4.90;;;;;;;22.05;69.64;99903.47;4361916;32;33990;-68
2022/06/05 03:32:49;;;;;;;6.75;5.00;;;;;;;22.19;69.32;99904.16;4361340;32;34456;-77
2022/06/05 03:35:17;;;;;;;8.02;4.93;;;;;;;22.17;68.96;99911.97;4361250;32;34017;-75
2022/06/05 03:37:45;;;;;;;5.85;4.87;;;;;;;22.36;68.32;99920.00;4361356;32;33850;-67
2022/06/05 03:40:14;;;;;;;6.87;4.78;;;;;;;22.48;67.43;99916.56;4360666;32;34131;-65
2022/06/05 03:42:43;;;;;;;6.47;4.75;;;;;;;22.22;67.95;99931.16;4361255;32;34156;-68
2022/06/05 03:45:15;;;;;;;6.03;4.53;;;;;;;22.22;67.80;99930.34;4361277;32;34028;-66
2022/06/05 03:47:43;;;;;;;7.28;5.22;;;;;;;22.15;68.06;99936.34;4347832;32;33695;-65
2022/06/05 03:50:12;;;;;;;8.75;5.50;;;;;;;22.33;67.27;99945.50;4347156;32;33816;-66
2022/06/05 03:52:41;;;;;;;5.80;4.62;;;;;;;22.38;67.11;99950.91;4360335;32;35015;-76
2022/06/05 03:55:12;;;;;;;6.35;5.37;;;;;;;22.06;68.67;99950.13;4360913;32;34898;-67
2022/06/05 03:57:40;;;;;;;7.18;5.47;;;;;;;21.95;69.98;99957.09;4347231;32;34363;-68
2022/06/05 04:00:09;;;;;;;6.60;4.65;;;;;;;22.19;68.80;99962.19;4360421;32;33960;-66
2022/06/05 04:02:38;;;;;;;7.30;5.00;;;;;;;21.88;70.30;99965.03;4360698;32;34244;-66
2022/06/05 04:05:08;;;;;;;6.90;4.93;;;;;;;21.88;72.25;99967.81;4361172;32;34484;-67
2022/06/05 04:07:35;;;;;;;6.15;4.65;;;;;;;22.18;72.69;99962.50;4356691;32;34103;-65
2022/06/05 04:10:04;;;;;;;6.53;4.87;;;;;;;22.16;73.04;99959.25;4359446;32;33877;-66
2022/06/05 04:12:32;;;;;;;5.65;4.30;;;;;;;21.91;73.97;99973.47;4357944;32;34185;-69
2022/06/05 04:15:00;;;;;;;6.93;4.90;;;;;;;22.14;73.98;99973.41;4358954;32;35131;-67
2022/06/05 04:17:27;;;;;;;6.28;4.72;;;;;;;22.93;68.59;99977.91;4357897;32;33572;-70
2022/06/05 04:19:55;;;;;;;7.30;5.00;;;;;;;22.42;70.09;99984.22;4360084;32;34892;-69
2022/06/05 04:22:23;;;;;;;7.72;5.35;;;;;;;22.21;71.63;99984.81;4359219;32;34867;-69
2022/06/05 04:24:50;;;;;;;9.02;6.22;;;;;;;22.73;70.73;99989.62;4358655;32;33754;-70
2022/06/05 04:27:18;;;;;;;8.13;5.68;;;;;;;22.87;69.71;99979.25;4358321;32;33470;-72
2022/06/05 04:29:45;;;;;;;7.45;5.12;;;;;;;22.68;70.40;99979.56;4358035;32;33536;-71
2022/06/05 04:32:13;;;;;;;8.77;6.43;;;;;;;23.14;69.48;99991.13;4356241;32;80105;-68
2022/06/05 04:34:41;;;;;;;8.07;6.28;;;;;;;22.93;68.44;100000.03;4359410;32;33824;-71
2022/06/05 04:37:08;;;;;;;9.48;6.82;;;;;;;22.45;70.38;99997.41;4359198;32;35087;-70
2022/06/05 04:39:36;;;;;;;11.18;7.82;;;;;;;22.42;70.62;100001.62;4361299;32;34734;-67
2022/06/05 04:42:04;;;;;;;13.05;8.43;;;;;;;20.94;78.47;99992.53;4361100;32;34267;-76
2022/06/05 04:44:31;;;;;;;13.18;8.82;;;;;;;21.43;76.36;99988.03;4361020;32;34940;-69
2022/06/05 04:46:59;;;;;;;12.02;8.75;;;;;;;21.43;76.20;99990.00;4348037;32;32912;-71
2022/06/05 04:49:27;;;;;;;12.43;8.98;;;;;;;21.13;78.01;99995.13;4361405;32;34309;-71
2022/06/05 04:51:54;;;;;;;14.75;9.45;;;;;;;20.87;79.98;99997.66;4347507;32;33749;-73
2022/06/05 04:54:22;;;;;;;14.00;8.77;;;;;;;20.89;80.12;100000.94;4348130;32;34799;-74
2022/06/05 04:56:49;;;;;;;13.55;9.05;;;;;;;20.92;79.39;100005.81;4361494;32;33578;-71
2022/06/05 04:59:17;;;;;;;12.40;8.77;;;;;;;21.41;77.44;100011.53;4355900;32;33453;-69
2022/06/05 05:01:44;;;;;;;10.70;7.93;;;;;;;21.32;76.90;100003.22;4345560;33;34676;-70
2022/06/05 05:04:14;;;;;;;12.30;8.95;;;;;;;21.03;78.86;100012.72;4346477;33;35171;-70
2022/06/05 05:06:43;;;;;;;12.32;9.10;;;;;;;20.54;82.26;100017.13;4347955;33;34362;-69
2022/06/05 05:09:11;;;;;;;13.77;8.98;;;;;;;20.68;81.44;100028.97;4335019;33;33878;-70
2022/06/05 05:11:39;;;;;;;13.80;9.07;;;;;;;20.54;82.62;100025.41;4334404;33;34272;-69
2022/06/05 05:14:06;;;;;;;12.80;8.90;;;;;;;20.67;81.83;100030.09;4347295;32;33972;-70
2022/06/05 05:16:34;;;;;;;11.98;8.75;;;;;;;21.39;77.79;100038.66;4348073;33;32565;-73
2022/06/05 05:19:07;;;;;;;16.12;10.10;;;;;;;20.96;80.33;100039.94;4348292;33;33993;-72
2022/06/05 05:21:35;;;;;;;13.30;9.00;;;;;;;20.77;81.29;100040.06;4346649;33;33700;-73
2022/06/05 05:24:03;;;;;;;17.35;10.55;;;;;;;21.43;78.00;100053.47;4334717;33;34911;-75
2022/06/05 05:26:32;;;;;;;17.08;10.73;;;;;;;21.00;79.03;100064.97;4348077;33;33593;-77
2022/06/05 05:29:01;;;;;;;17.67;11.15;;;;;;;21.04;79.01;100065.97;4343135;32;34097;-71
2022/06/05 05:31:35;;;;;;;15.40;10.05;;;;;;;21.20;78.10;100063.66;4362333;32;34295;-70
2022/06/05 05:34:04;;;;;;;14.95;9.68;;;;;;;21.12;78.21;100072.66;4343284;33;35282;-74
2022/06/05 05:36:32;;;;;;;13.02;8.90;;;;;;;21.42;76.44;100065.62;4347167;33;33227;-71
2022/06/05 05:42:04;;;;;;;15.35;9.02;;;;;;;21.67;74.90;100066.97;4347319;32;33887;-68
2022/06/05 05:44:34;;;;;;;12.32;8.57;;;;;;;21.00;77.23;100074.03;4347352;33;34142;-70
2022/06/05 05:47:03;;;;;;;13.43;7.75;;;;;;;21.30;75.67;100063.41;4348022;33;34517;-69
2022/06/05 05:49:30;;;;;;;12.90;8.70;;;;;;;21.25;76.04;100060.75;4347904;33;34562;-68
2022/06/05 05:51:58;;;;;;;13.00;8.48;;;;;;;21.53;74.86;100055.97;4347628;33;33823;-69
2022/06/05 05:54:25;;;;;;;10.85;7.35;;;;;;;21.71;73.44;100062.44;4347321;32;34328;-68
2022/06/05 05:56:53;;;;;;;11.95;8.07;;;;;;;21.02;77.28;100066.28;4347492;33;33680;-68
2022/06/05 05:59:20;;;;;;;10.18;7.15;;;;;;;21.44;75.78;100052.34;4347696;33;33852;-69
2022/06/05 06:01:48;;;;;;;10.20;6.70;;;;;;;21.18;77.23;100061.19;4347684;33;34390;-69
2022/06/05 06:04:16;;;;;;;10.90;7.05;;;;;;;21.39;74.67;100061.53;4347844;33;34022;-68
2022/06/05 06:06:45;;;;;;;9.32;6.53;;;;;;;21.18;75.75;100052.94;4347777;33;34154;-68
2022/06/05 06:09:13;;;;;;;8.68;6.37;;;;;;;21.54;74.96;100054.84;4347845;33;33966;-68
2022/06/05 06:11:40;;;;;;;7.10;5.85;;;;;;;21.66;72.71;100057.03;4347529;33;34856;-67
2022/06/05 06:14:08;;;;;;;13.77;7.37;;;;;;;21.43;73.56;100067.28;4347518;33;34747;-68
2022/06/05 06:16:35;;;;;;;6.22;4.55;;;;;;;21.49;72.90;100055.00;4347564;33;33828;-69
2022/06/05 06:19:04;;;;;;;8.00;4.93;;;;;;;21.45;72.82;100054.78;4347556;33;34766;-68
2022/06/05 06:21:31;;;;;;;6.87;5.07;;;;;;;21.35;74.47;100056.97;4347285;33;34784;-71
2022/06/05 06:24:01;;;;;;;5.97;4.25;;;;;;;22.49;69.18;100048.16;4348052;33;33916;-70
2022/06/05 06:26:29;;;;;;;7.28;4.90;;;;;;;22.55;68.96;100044.13;4347482;33;34558;-71
2022/06/05 06:28:56;;;;;;;6.68;4.60;;;;;;;22.46;68.31;100038.56;4347317;33;34948;-73
2022/06/05 06:31:24;;;;;;;6.43;4.30;;;;;;;22.89;66.64;100048.91;4347120;33;33910;-74
2022/06/05 06:33:51;;;;;;;6.37;4.18;;;;;;;22.50;67.79;100034.03;4347559;33;34338;-67
2022/06/05 06:36:19;;;;;;;5.87;4.07;;;;;;;22.97;65.28;100038.97;4347713;33;33766;-68
2022/06/05 06:39:07;;;;;;;6.75;4.55;;;;;;;22.41;66.92;100038.69;4347954;33;34082;-69
2022/06/05 06:41:34;;;;;;;6.05;4.15;;;;;;;21.99;69.18;100046.50;4347411;33;34221;-69
2022/06/05 06:44:03;;;;;;;7.70;4.85;;;;;;;22.77;65.83;100039.59;4347648;33;34050;-69
2022/06/05 06:46:32;;;;;;;7.65;4.87;;;;;;;22.31;67.82;100042.59;4347588;33;33732;-68
2022/06/05 06:48:59;;;;;;;7.05;5.28;;;;;;;22.15;68.95;100040.53;4347859;33;34557;-68
2022/06/05 06:51:28;;;;;;;7.00;4.53;;;;;;;22.13;69.48;100036.13;4347289;33;34995;-68
2022/06/05 06:53:56;;;;;;;6.05;4.50;;;;;;;22.58;68.33;100026.87;4347524;33;35024;-69
2022/06/05 06:56:26;;;;;;;6.68;4.68;;;;;;;23.03;65.77;100023.84;4347471;33;33335;-69
2022/06/05 06:58:55;;;;;;;7.03;4.82;;;;;;;22.69;67.91;100033.72;4347658;33;33679;-67
2022/06/05 07:01:23;;;;;;;6.85;4.78;;;;;;;22.90;66.33;100033.91;4347229;33;33706;-66
2022/06/05 07:03:50;;;;;;;6.72;4.50;;;;;;;23.01;65.37;100037.19;4347788;33;35092;-67
2022/06/05 07:06:20;;;;;;;6.72;5.20;;;;;;;23.43;64.68;100037.47;4347876;33;33714;-66
2022/06/05 07:08:49;;;;;;;9.82;5.68;;;;;;;23.36;64.43;100025.28;4347525;33;33733;-66
2022/06/05 07:11:17;;;;;;;7.55;5.22;;;;;;;23.34;64.29;100028.38;4347203;33;33899;-68
2022/06/05 07:13:49;;;;;;;7.28;5.43;;;;;;;23.25;64.44;100024.81;4347443;33;34793;-67
2022/06/05 07:16:17;;;;;;;7.50;5.15;;;;;;;23.20;64.64;100027.78;4347472;33;33635;-67
2022/06/05 07:18:45;;;;;;;5.87;4.55;;;;;;;23.27;64.37;100030.84;4347522;33;33703;-67
2022/06/05 07:21:23;;;;;;;7.12;5.15;;;;;;;23.95;62.76;100023.56;4346756;33;33905;-68
2022/06/05 07:23:54;;;;;;;6.20;4.82;;;;;;;24.49;59.08;100027.69;4347582;33;34177;-64
2022/06/05 07:26:25;;;;;;;7.20;5.12;;;;;;;24.01;60.68;100028.91;4346798;33;33409;-66
2022/06/05 07:28:56;;;;;;;6.00;4.87;;;;;;;23.48;62.96;100025.44;4347415;33;33831;-66
2022/06/05 07:31:26;;;;;;;6.47;4.70;;;;;;;24.30;61.24;100020.63;4347152;33;34974;-67
2022/06/05 07:33:54;;;;;;;5.20;4.30;;;;;;;24.18;60.53;100025.25;4347002;33;34240;-66
2022/06/05 07:36:22;;;;;;;7.15;5.32;;;;;;;24.52;59.53;100033.41;4347140;33;33572;-70
2022/06/05 07:38:53;;;;;;;6.55;4.60;;;;;;;24.52;58.55;100025.06;4347726;33;34133;-65
2022/06/05 07:41:28;;;;;;;6.35;4.65;;;;;;;24.70;59.99;100031.31;4346960;33;34142;-67
2022/06/05 07:43:56;;;;;;;7.40;4.68;;;;;;;24.07;60.44;100030.34;4334357;33;33871;-66
2022/06/05 07:46:23;;;;;;;6.87;5.03;;;;;;;24.22;59.53;100032.56;4347275;33;33358;-66
2022/06/05 07:48:51;;;;;;;6.93;5.10;;;;;;;24.43;59.34;100037.31;4347507;33;34740;-67
2022/06/05 07:54:28;;;;;;;7.32;5.40;;;;;;;23.72;61.55;100035.97;4347407;33;33881;-70
2022/06/05 07:57:08;;;;;;;7.32;4.85;;;;;;;23.92;61.25;100040.00;4347191;33;33670;-68
2022/06/05 07:59:44;;;;;;;7.57;5.30;;;;;;;23.54;61.82;100041.56;4347144;33;34788;-66
2022/06/05 08:02:15;;;;;;;9.05;5.65;;;;;;;23.75;61.66;100043.63;4346926;33;34197;-66
2022/06/05 08:04:43;;;;;;;6.70;4.93;;;;;;;23.77;62.13;100046.91;4347243;33;34245;-66
2022/06/05 08:07:13;;;;;;;6.93;4.95;;;;;;;23.82;61.62;100041.16;4347234;33;34464;-66
2022/06/05 08:09:41;;;;;;;6.62;5.03;;;;;;;23.79;62.33;100047.37;4346811;33;33697;-68
2022/06/05 08:12:11;;;;;;;7.07;5.30;;;;;;;23.69;63.55;100043.00;4345693;32;35182;-67
2022/06/05 08:14:41;;;;;;;7.75;5.70;;;;;;;24.16;60.84;100048.56;4333342;33;33713;-66
2022/06/05 08:17:12;;;;;;;6.95;5.05;;;;;;;24.30;59.99;100044.75;4346650;33;33465;-65
2022/06/05 08:19:41;;;;;;;6.62;4.93;;;;;;;24.56;61.40;100041.88;4346425;33;34138;-66
2022/06/05 08:22:10;;;;;;;8.77;5.30;;;;;;;23.94;61.81;100043.28;4346373;33;35174;-67
2022/06/05 08:24:37;;;;;;;8.55;5.30;;;;;;;24.42;58.90;100044.03;4346541;33;34285;-67
2022/06/05 08:27:24;;;;;;;6.82;5.12;;;;;;;24.42;59.81;100049.59;4346217;33;34275;-66
2022/06/05 08:29:55;;;;;;;7.28;5.10;;;;;;;24.46;58.32;100051.34;4346340;33;33618;-66
2022/06/05 08:32:25;;;;;;;7.68;5.68;;;;;;;24.10;60.21;100051.84;4346067;33;35040;-65
2022/06/05 08:34:53;;;;;;;6.68;5.20;;;;;;;24.01;60.95;100059.38;4346215;33;34191;-68
2022/06/05 08:43:37;;;;;;;6.37;5.43;;;;;;;24.20;59.89;100057.03;4345813;33;33891;-67
2022/06/05 08:46:10;;;;;;;9.07;5.10;;;;;;;24.65;59.75;100061.25;4346432;33;33779;-67
2022/06/05 08:48:58;;;;;;;8.30;5.97;;;;;;;24.96;57.17;100055.28;4346501;33;33684;-66
2022/06/05 08:51:36;;;;;;;6.68;5.03;;;;;;;23.90;60.36;100059.75;4346018;33;33877;-67
2022/06/05 08:54:25;;;;;;;7.60;5.75;;;;;;;24.28;58.83;100067.28;4346278;33;33965;-66
2022/06/05 08:57:00;;;;;;;7.37;5.35;;;;;;;23.94;60.24;100062.66;4345285;33;34016;-67
2022/06/05 08:59:56;;;;;;;7.12;5.18;;;;;;;24.21;60.02;100055.91;4338517;32;33945;-67
2022/06/05 09:02:45;;;;;;;7.15;5.20;;;;;;;24.13;60.06;100043.69;4340706;32;34621;-66
2022/06/05 09:05:34;;;;;;;7.57;5.45;;;;;;;23.93;61.49;100050.78;4361270;32;33801;-67
2022/06/05 09:08:08;;;;;;;8.07;5.43;;;;;;;23.75;61.71;100043.63;4347824;32;34565;-67
2022/06/05 09:10:39;;;;;;;7.57;6.10;;;;;;;24.32;59.18;100045.25;4347427;32;34700;-66
2022/06/05 09:13:13;;;;;;;7.20;5.25;;;;;;;24.25;59.64;100042.16;4347890;32;33986;-66
2022/06/05 09:15:51;;;;;;;7.22;5.30;;;;;;;24.53;59.65;100046.09;4361169;32;33968;-65
2022/06/05 09:18:20;;;;;;;6.72;5.18;;;;;;;24.58;59.54;100045.13;4348080;32;33983;-67
2022/06/05 09:20:48;;;;;;;6.47;5.03;;;;;;;24.89;59.02;100043.94;4347435;32;33826;-71
2022/06/05 09:23:22;;;;;;;6.57;5.20;;;;;;;24.46;59.25;100053.31;4360925;32;34156;-68
2022/06/05 09:25:54;;;;;;;8.27;5.47;;;;;;;24.36;59.84;100044.25;4361070;32;34250;-67
2022/06/05 09:28:24;;;;;;;7.37;5.43;;;;;;;24.60;58.84;100047.53;4361111;32;35071;-69
2022/06/05 09:31:39;;;;;;;7.43;5.05;;;;;;;24.90;59.69;100029.72;4360441;32;33404;-68
2022/06/05 09:34:51;;;;;;;7.70;5.97;;;;;;;25.29;56.41;100044.28;4309636;33;34597;-67
2022/06/05 09:37:24;;;;;;;8.20;5.97;;;;;;;25.01;56.89;100043.16;4334677;33;35028;-68
2022/06/05 09:39:55;;;;;;;6.72;5.35;;;;;;;25.28;56.42;100039.06;4332295;33;35073;-66
2022/06/05 09:42:53;;;;;;;7.95;5.87;;;;;;;25.17;57.95;100055.31;4332236;33;33475;-67
2022/06/05 09:45:33;;;;;;;7.50;5.60;;;;;;;24.74;58.24;100050.87;4343145;33;34668;-67
2022/06/05 09:48:12;;;;;;;6.72;5.40;;;;;;;25.23;56.26;100056.75;4332310;33;34250;-67
2022/06/05 09:50:39;;;;;;;10.43;6.10;;;;;;;25.06;55.55;100068.78;4346455;33;35137;-67
2022/06/05 09:53:12;;;;;;;8.18;5.87;;;;;;;24.79;56.57;100075.66;4348039;33;34713;-68
2022/06/05 09:55:50;;;;;;;9.10;6.22;;;;;;;24.89;57.34;100066.12;4334440;33;34118;-68
2022/06/05 09:58:31;;;;;;;6.95;5.15;;;;;;;24.61;56.52;100074.16;4347850;33;34679;-67
2022/06/05 10:01:18;;;;;;;7.57;5.97;;;;;;;25.34;54.19;100071.84;4347260;33;34927;-68
2022/06/05 10:03:47;;;;;;;7.40;5.75;;;;;;;24.82;56.00;100080.56;4347951;33;34316;-69
2022/06/05 10:06:14;;;;;;;7.03;5.43;;;;;;;24.68;56.24;100071.66;4347896;33;35069;-66
2022/06/05 10:08:44;;;;;;;7.35;5.70;;;;;;;25.21;56.01;100072.13;4345736;32;34722;-65
2022/06/05 10:11:38;;;;;;;7.47;5.75;;;;;;;25.38;55.97;100069.22;4358283;32;34290;-70
2022/06/05 10:14:28;;;;;;;8.17;4.83;;;;;;;25.79;53.18;100070.28;4343594;32;34434;-65
2022/06/05 10:17:12;;;;;;;6.78;5.45;;;;;;;25.35;55.15;100069.88;4347133;32;33442;-66
2022/06/05 10:20:06;;;;;;;7.70;6.40;;;;;;;25.32;54.94;100084.44;4361914;32;35127;-67
2022/06/05 10:22:43;;;;;;;7.10;6.05;;;;;;;25.22;53.81;100070.97;4362113;32;34302;-65
2022/06/05 10:25:29;;;;;;;6.75;5.53;;;;;;;24.78;55.92;100071.28;4348087;32;34334;-66
2022/06/05 10:28:02;;;;;;;9.02;5.78;;;;;;;24.94;56.86;100063.94;4362057;32;34018;-66
2022/06/05 10:30:34;;;;;;;6.80;5.40;;;;;;;25.06;54.14;100059.66;4362096;32;34170;-67
2022/06/05 10:33:10;;;;;;;7.30;5.62;;;;;;;25.29;54.11;100058.19;4346920;32;33867;-66
2022/06/05 10:35:47;;;;;;;6.97;5.25;;;;;;;25.29;51.14;100057.34;4361805;32;33366;-64
2022/06/05 10:38:29;;;;;;;5.90;4.35;;;;;;;25.00;53.77;100044.34;4361625;32;33752;-64
2022/06/05 10:41:03;;;;;;;6.15;4.95;;;;;;;24.99;53.01;100040.75;4361783;32;33745;-64
2022/06/05 10:43:32;;;;;;;5.80;4.50;;;;;;;25.29;50.98;100026.78;4361623;32;33981;-69
2022/06/05 10:46:06;;;;;;;5.70;4.40;;;;;;;24.90;52.74;100028.88;4348555;32;33810;-65
2022/06/05 10:48:49;;;;;;;5.07;4.03;;;;;;;25.50;50.72;100019.22;4347732;32;33729;-71
2022/06/05 10:51:53;;;;;;;5.57;4.28;;;;;;;25.05;49.51;100025.50;4362127;32;34278;-67
2022/06/05 10:54:39;;;;;;;5.70;4.53;;;;;;;25.10;51.36;100016.97;4351292;32;34127;-67
2022/06/05 10:57:18;;;;;;;6.20;4.05;;;;;;;24.80;52.55;100015.44;4348204;32;35317;-66
2022/06/05 11:00:06;;;;;;;4.87;3.83;;;;;;;25.42;49.06;100014.59;4348399;32;34810;-66
2022/06/05 11:03:04;;;;;;;5.97;3.70;;;;;;;25.36;48.54;100013.19;4360814;32;34098;-68
2022/06/05 11:05:43;;;;;;;5.55;3.50;;;;;;;25.12;48.82;100014.69;4361860;32;34981;-65
2022/06/05 11:08:17;;;;;;;6.10;4.12;;;;;;;25.19;48.12;100016.91;4361595;32;35046;-66
2022/06/05 11:14:22;;;;;;;4.28;3.42;;;;;;;25.20;47.91;100004.66;4361637;32;35092;-64
2022/06/05 11:17:21;;;;;;;4.72;4.00;;;;;;;25.84;47.33;100008.88;4349375;32;34525;-62
2022/06/05 11:19:59;;;;;;;7.70;4.03;;;;;;;25.73;46.65;100005.75;4348029;32;33609;-64
2022/06/05 11:22:29;;;;;;;5.00;3.90;;;;;;;25.73;44.97;100016.84;4348370;32;33808;-63
2022/06/05 11:25:10;;;;;;;4.85;3.78;;;;;;;25.54;47.15;100019.38;4361199;32;34365;-65
2022/06/05 11:27:53;;;;;;;4.93;3.60;;;;;;;25.47;46.27;100019.91;4347719;32;33802;-68
2022/06/05 11:30:45;;;;;;;4.18;3.50;;;;;;;25.43;47.57;100018.19;4348014;32;33587;-63
2022/06/05 11:33:26;;;;;;;4.60;3.50;;;;;;;25.86;45.20;100023.25;4361701;32;34997;-63
2022/06/05 11:36:14;;;;;;;5.00;3.37;;;;;;;26.15;44.34;100007.53;4347221;32;34563;-64
2022/06/05 11:38:57;;;;;;;6.00;3.65;;;;;;;26.35;43.98;100017.75;4347729;32;35100;-64
2022/06/05 11:41:43;;;;;;;4.78;3.42;;;;;;;26.66;44.41;100016.34;4346896;32;34181;-63
2022/06/05 11:44:24;;;;;;;4.25;3.03;;;;;;;26.40;43.48;100011.13;4361953;32;33790;-65
2022/06/05 11:47:07;;;;;;;5.82;3.28;;;;;;;26.44;43.44;100005.69;4360099;32;34098;-66
2022/06/05 11:49:45;;;;;;;4.47;3.37;;;;;;;26.70;42.93;100008.91;4361705;32;34809;-67
2022/06/05 11:52:31;;;;;;;4.18;3.30;;;;;;;26.57;43.82;99998.97;4361773;32;33395;-64
2022/06/05 11:55:09;;;;;;;5.03;3.50;;;;;;;26.44;44.40;99983.44;4348128;32;34047;-66
2022/06/05 11:57:58;;;;;;;5.18;3.87;;;;;;;26.64;43.97;99998.38;4348298;32;33778;-64
2022/06/05 12:00:36;;;;;;;4.72;3.72;;;;;;;26.53;45.00;99998.03;4348201;32;34248;-72
2022/06/05 12:03:20;;;;;;;4.82;3.83;;;;;;;26.58;43.31;99984.69;4348401;32;34431;-67
2022/06/05 12:06:14;;;;;;;5.00;3.50;;;;;;;25.77;45.62;99973.34;4348673;32;34588;-66
2022/06/05 12:08:56;;;;;;;5.90;3.90;;;;;;;25.62;47.04;99954.56;4348019;32;34254;-65
2022/06/05 12:11:35;;;;;;;5.35;3.90;;;;;;;26.27;44.65;99965.03;4361456;32;33995;-65
2022/06/05 12:14:05;;;;;;;6.18;3.50;;;;;;;26.44;44.46;99963.97;4361117;32;34462;-67
2022/06/05 12:16:38;;;;;;;5.00;3.35;;;;;;;26.29;44.80;99948.81;4361847;32;33957;-62